Time;durP1;ratioP1;P1;durP2;ratioP2;P2;SDS_P1;SDS_P2;PMS_P1;PMS_P2;Temp;Humidity;BMP_temperature;BMP_pressure;BME280_temperature;BME280_humidity;BME280_pressure;Samples;Min_cycle;Max_cycle;Signal;HPM_P1;HPM_P2
2023/01/13 00:02:18;;;;;;;4.47;4.07;;;;;;;9.34;67.67;94953.25;5150937;27;20191;-47
2023/01/13 00:04:46;;;;;;;4.40;4.00;;;;;;;9.37;67.63;94958.13;5150203;27;20187;-47
2023/01/13 00:07:13;;;;;;;4.23;3.83;;;;;;;9.23;67.90;94933.69;5150295;27;20218;-46
2023/01/13 00:09:41;;;;;;;3.80;3.50;;;;;;;9.37;67.92;94963.22;5150815;27;20179;-47
2023/01/13 00:12:08;;;;;;;4.60;4.20;;;;;;;9.14;67.87;94928.50;5151135;27;20188;-47
2023/01/13 00:14:35;;;;;;;4.20;3.80;;;;;;;9.35;67.82;94959.97;5150982;27;20196;-48
2023/01/13 00:17:01;;;;;;;3.83;3.50;;;;;;;9.35;67.92;94957.41;5150606;27;20335;-48
2023/01/13 00:19:28;;;;;;;3.80;3.40;;;;;;;9.35;67.91;94957.41;5152163;27;20218;-46
2023/01/13 00:21:55;;;;;;;5.10;3.97;;;;;;;9.36;67.84;94963.31;5150675;27;20260;-45
2023/01/13 00:24:22;;;;;;;4.13;3.73;;;;;;;9.36;68.04;94961.56;5151311;27;20176;-47
2023/01/13 00:26:51;;;;;;;4.70;3.80;;;;;;;9.36;67.89;94965.88;5149872;27;20215;-47
2023/01/13 00:29:18;;;;;;;3.73;3.43;;;;;;;9.35;68.01;94951.50;5150432;27;20645;-46
2023/01/13 00:31:45;;;;;;;4.20;3.77;;;;;;;9.36;68.07;94959.03;5153503;27;20183;-47
2023/01/13 00:34:11;;;;;;;4.33;3.93;;;;;;;9.37;67.86;94953.00;5154635;27;20179;-47
2023/01/13 00:36:38;;;;;;;4.53;4.00;;;;;;;9.38;67.80;94956.38;5154664;27;20179;-47
2023/01/13 00:39:05;;;;;;;4.30;3.90;;;;;;;9.37;67.85;94963.22;5154703;27;20180;-47
2023/01/13 00:43:21;;;;;;;5.13;4.37;;;;;;;9.32;67.89;94944.88;5154567;27;20697;-49
2023/01/13 00:44:19;;;;;;;4.00;3.63;;;;;;;9.36;67.80;94953.91;5154305;27;20261;-48
2023/01/13 00:46:46;;;;;;;4.47;4.07;;;;;;;9.36;68.08;94960.75;5154001;27;20318;-46
2023/01/13 00:49:12;;;;;;;5.00;4.50;;;;;;;9.35;68.02;94956.59;5154108;27;20681;-47
2023/01/13 00:51:39;;;;;;;4.80;4.40;;;;;;;9.33;68.13;94948.28;5154584;27;20202;-48
2023/01/13 00:54:06;;;;;;;5.40;4.53;;;;;;;9.24;68.00;94927.66;5154210;27;20224;-47
2023/01/13 00:56:33;;;;;;;4.70;4.30;;;;;;;9.32;67.95;94942.34;5154274;27;20184;-46
2023/01/13 00:59:01;;;;;;;5.30;4.27;;;;;;;9.35;67.98;94952.31;5153344;27;20277;-46
2023/01/13 01:01:29;;;;;;;4.83;3.90;;;;;;;9.35;67.91;94946.41;5154181;27;20196;-46
2023/01/13 01:03:55;;;;;;;5.20;4.27;;;;;;;9.36;67.88;94948.81;5154395;27;20245;-46
2023/01/13 01:06:26;;;;;;;5.20;4.70;;;;;;;9.35;67.92;94947.19;5155030;27;20253;-47
2023/01/13 01:08:54;;;;;;;4.57;4.17;;;;;;;9.36;68.08;94948.00;5158869;27;20190;-46
2023/01/13 01:11:22;;;;;;;4.73;3.63;;;;;;;9.35;67.94;94946.41;5158775;27;20180;-48
2023/01/13 01:13:51;;;;;;;4.53;4.13;;;;;;;9.28;68.31;94935.84;5154512;27;20612;-47
2023/01/13 01:16:20;;;;;;;4.70;4.30;;;;;;;9.35;68.12;94937.00;5154580;27;20672;-46
2023/01/13 01:18:50;;;;;;;4.33;3.93;;;;;;;9.30;68.06;94929.72;5153824;27;20207;-47
2023/01/13 01:21:18;;;;;;;4.77;4.37;;;;;;;9.35;67.90;94938.75;5154137;27;20580;-48
2023/01/13 01:23:45;;;;;;;4.70;4.30;;;;;;;9.35;67.98;94938.75;5153660;27;20545;-46
2023/01/13 01:26:14;;;;;;;4.27;3.87;;;;;;;9.34;68.00;94935.38;5154410;27;20222;-49
2023/01/13 01:28:41;;;;;;;4.20;3.80;;;;;;;9.32;68.16;94927.03;5153758;27;20187;-47
2023/01/13 01:31:10;;;;;;;4.50;4.10;;;;;;;9.30;67.92;94922.06;5153033;27;20668;-47
2023/01/13 01:33:36;;;;;;;4.53;4.13;;;;;;;9.37;67.87;94936.84;5152977;27;20194;-47
2023/01/13 01:36:05;;;;;;;4.53;3.97;;;;;;;9.35;68.01;94928.53;5153719;27;20187;-46
2023/01/13 01:38:32;;;;;;;4.33;3.93;;;;;;;9.34;67.98;94925.16;5153136;27;20302;-47
2023/01/13 01:40:58;;;;;;;4.97;4.47;;;;;;;9.31;67.79;94922.84;5153087;27;20179;-46
2023/01/13 01:43:58;;;;;;;4.40;4.00;;;;;;;9.36;68.07;94922.47;5151874;27;20244;-47
2023/01/13 01:46:29;;;;;;;5.07;4.53;;;;;;;9.33;67.93;94920.19;5153492;27;20204;-47
2023/01/13 01:49:02;;;;;;;4.37;3.97;;;;;;;9.32;67.73;94918.56;5152556;27;20194;-47
2023/01/13 01:51:34;;;;;;;4.77;4.37;;;;;;;9.27;67.65;94903.63;5153466;27;20192;-47
2023/01/13 01:54:04;;;;;;;4.60;4.20;;;;;;;9.31;67.74;94920.31;5152979;27;20704;-46
2023/01/13 01:56:33;;;;;;;4.40;4.00;;;;;;;9.31;67.88;94915.22;5153509;27;20195;-48
2023/01/13 01:59:00;;;;;;;5.30;4.33;;;;;;;9.33;67.93;94915.91;5152979;27;20223;-47
2023/01/13 02:01:27;;;;;;;4.60;4.20;;;;;;;9.30;67.78;94914.41;5152751;27;20192;-48
2023/01/13 02:04:01;;;;;;;4.33;3.93;;;;;;;9.31;67.76;94917.75;5153049;27;20187;-45
2023/01/13 02:06:31;;;;;;;4.60;4.20;;;;;;;9.32;67.98;94913.47;5152994;27;20727;-46
2023/01/13 02:08:59;;;;;;;4.83;4.33;;;;;;;9.30;67.94;94914.41;5152745;27;20183;-48
2023/01/13 02:14:18;;;;;;;5.17;4.50;;;;;;;9.32;67.86;94916.00;5152855;27;20268;-47
2023/01/13 02:16:55;;;;;;;4.60;4.20;;;;;;;9.15;68.02;94900.31;5152777;27;20413;-51
2023/01/13 02:20:04;;;;;;;4.30;3.90;;;;;;;9.30;68.04;94916.94;5152197;27;20191;-47
2023/01/13 02:22:56;;;;;;;4.97;4.47;;;;;;;9.28;68.13;94907.78;5067736;28;20205;-46
2023/01/13 02:25:43;;;;;;;4.63;3.97;;;;;;;9.29;68.00;94914.53;5068086;28;20194;-47
2023/01/13 02:28:29;;;;;;;4.53;4.10;;;;;;;9.25;68.22;94908.06;5068149;28;20286;-47
2023/01/13 02:34:00;;;;;;;4.37;3.97;;;;;;;9.29;68.13;94914.53;5061119;28;20197;-48
2023/01/13 02:36:37;;;;;;;4.57;4.17;;;;;;;9.27;67.95;94911.28;5068073;28;20201;-47
2023/01/13 02:39:12;;;;;;;4.70;3.90;;;;;;;9.26;68.23;94915.56;5067637;28;20193;-46
2023/01/13 02:44:37;;;;;;;4.77;4.30;;;;;;;9.27;67.99;94908.72;5061891;28;20264;-48
2023/01/13 02:47:10;;;;;;;4.60;4.20;;;;;;;9.29;68.04;94922.19;5067196;28;20218;-46
2023/01/13 02:49:43;;;;;;;4.60;4.20;;;;;;;9.08;67.84;94885.66;5067611;28;20255;-47
2023/01/13 02:52:15;;;;;;;4.63;4.23;;;;;;;9.24;67.97;94907.25;5067037;28;20251;-46
2023/01/13 02:54:46;;;;;;;5.10;4.60;;;;;;;9.30;67.98;94911.03;5066321;28;20650;-47
2023/01/13 02:57:17;;;;;;;4.90;4.40;;;;;;;9.28;67.99;94907.78;5067413;28;20779;-46
2023/01/13 02:59:44;;;;;;;4.60;4.20;;;;;;;9.31;67.96;94912.66;5129571;27;20187;-46
2023/01/13 03:02:15;;;;;;;4.20;3.80;;;;;;;9.32;67.71;94913.47;5151081;27;20286;-48
2023/01/13 03:04:48;;;;;;;4.90;4.50;;;;;;;9.25;67.91;94905.50;5151457;27;20533;-46
2023/01/13 03:07:31;;;;;;;5.13;4.63;;;;;;;9.26;67.78;94907.94;5151190;27;20211;-46
2023/01/13 03:10:07;;;;;;;3.93;3.53;;;;;;;9.18;68.04;94892.41;5151488;27;20183;-47
2023/01/13 03:12:43;;;;;;;4.93;4.43;;;;;;;9.32;67.87;94911.72;5151268;27;20184;-47
2023/01/13 03:15:17;;;;;;;4.47;4.07;;;;;;;9.33;67.91;94917.66;5151416;27;20195;-47
2023/01/13 03:17:52;;;;;;;3.87;3.57;;;;;;;9.33;67.78;94912.53;5150894;27;20614;-47
2023/01/13 03:20:24;;;;;;;5.40;4.50;;;;;;;9.30;67.82;94913.59;5151160;27;20195;-47
2023/01/13 03:22:59;;;;;;;5.10;4.33;;;;;;;9.33;67.91;94908.25;5151654;27;20645;-46
2023/01/13 03:25:29;;;;;;;4.33;3.93;;;;;;;9.33;68.09;94912.53;5151684;27;20195;-46
2023/01/13 03:28:00;;;;;;;4.30;3.90;;;;;;;9.29;68.09;94901.78;5153634;27;20234;-47
2023/01/13 03:30:32;;;;;;;4.60;4.10;;;;;;;9.24;67.73;94901.31;5153343;27;20203;-47
2023/01/13 03:33:05;;;;;;;4.43;4.03;;;;;;;9.35;67.69;94920.88;5151217;27;20191;-47
2023/01/13 03:35:36;;;;;;;4.17;3.77;;;;;;;9.30;67.98;94911.03;5150548;27;20240;-47
2023/01/13 03:38:06;;;;;;;4.50;4.10;;;;;;;9.30;68.12;94909.28;5151040;27;20244;-47
2023/01/13 03:40:39;;;;;;;5.90;4.33;;;;;;;9.35;67.85;94923.44;5150759;27;20544;-46
2023/01/13 03:45:59;;;;;;;4.17;3.77;;;;;;;9.33;67.67;94922.75;5150490;27;20580;-47
2023/01/13 03:48:29;;;;;;;4.07;3.67;;;;;;;9.33;67.87;94926.13;5150430;27;20260;-46
2023/01/13 03:51:03;;;;;;;5.17;4.23;;;;;;;9.33;67.79;94922.75;5150802;27;20192;-46
2023/01/13 03:53:32;;;;;;;4.37;3.97;;;;;;;9.16;67.97;94896.03;5150733;27;20576;-49
2023/01/13 03:56:05;;;;;;;4.23;3.83;;;;;;;9.33;67.85;94926.13;5150547;27;20192;-47
2023/01/13 03:58:37;;;;;;;4.27;3.87;;;;;;;9.28;67.98;94915.44;5150882;27;20180;-47
2023/01/13 04:01:12;;;;;;;4.00;3.60;;;;;;;9.33;67.87;94922.75;5149870;27;20199;-48
2023/01/13 04:03:47;;;;;;;3.87;3.57;;;;;;;9.33;67.95;94922.75;5149577;27;20186;-48
2023/01/13 04:06:18;;;;;;;4.07;3.53;;;;;;;9.32;67.85;94921.91;5149639;27;20247;-47
2023/01/13 04:08:51;;;;;;;3.80;3.50;;;;;;;9.28;67.91;94918.81;5150713;27;20266;-48
2023/01/13 04:11:22;;;;;;;4.10;3.70;;;;;;;9.30;67.71;94934.81;5150607;27;20650;-46
2023/01/13 04:13:50;;;;;;;4.13;3.73;;;;;;;9.29;67.86;94933.19;5150449;27;20184;-47
2023/01/13 04:16:16;;;;;;;4.20;3.80;;;;;;;9.28;68.12;94929.03;5150684;27;20510;-46
2023/01/13 04:18:45;;;;;;;4.60;4.20;;;;;;;9.27;68.15;94932.50;5150684;27;20191;-46
2023/01/13 04:21:12;;;;;;;4.70;4.13;;;;;;;9.28;67.79;94931.59;5150531;27;20190;-47
2023/01/13 04:23:38;;;;;;;4.20;3.80;;;;;;;9.27;67.97;94936.78;5150923;27;20467;-46
2023/01/13 04:26:05;;;;;;;5.10;3.87;;;;;;;9.29;68.07;94934.94;5150586;27;20180;-46
2023/01/13 04:28:33;;;;;;;4.10;3.70;;;;;;;9.29;67.91;94935.75;5150176;27;20681;-48
2023/01/13 04:31:00;;;;;;;3.87;3.57;;;;;;;9.29;68.03;94934.94;5150384;27;20188;-48
2023/01/13 04:33:27;;;;;;;4.03;3.67;;;;;;;9.24;68.04;94937.88;5151075;27;20187;-48
2023/01/13 04:35:55;;;;;;;3.60;3.30;;;;;;;9.29;67.92;94950.25;5151321;27;20191;-47
2023/01/13 04:38:22;;;;;;;3.80;3.50;;;;;;;9.28;67.97;94941.78;5150773;27;20286;-47
2023/01/13 04:40:49;;;;;;;4.07;3.73;;;;;;;9.28;68.04;94943.50;5150885;27;20219;-47
2023/01/13 04:43:16;;;;;;;4.17;3.77;;;;;;;9.12;67.96;94922.75;5150792;27;20231;-47
2023/01/13 04:45:44;;;;;;;3.57;3.30;;;;;;;9.28;68.09;94946.06;5151069;27;20196;-47
2023/01/13 04:48:11;;;;;;;3.80;3.50;;;;;;;9.26;67.99;94941.09;5150853;27;20723;-47
2023/01/13 04:50:38;;;;;;;4.03;3.63;;;;;;;8.40;68.09;94808.63;5150653;27;20188;-49
2023/01/13 04:53:06;;;;;;;4.43;3.73;;;;;;;9.26;68.10;94938.53;5150246;27;20210;-51
2023/01/13 04:55:34;;;;;;;3.77;3.47;;;;;;;9.26;68.01;94943.66;5150276;27;20309;-48
2023/01/13 04:58:04;;;;;;;4.13;3.73;;;;;;;9.26;68.11;94943.66;5149959;27;20267;-47
2023/01/13 05:00:31;;;;;;;4.00;3.60;;;;;;;9.26;67.99;94951.31;5150101;27;20184;-47
2023/01/13 05:02:59;;;;;;;3.73;3.43;;;;;;;9.09;68.00;94922.97;5151601;27;20180;-47
2023/01/13 05:05:26;;;;;;;4.20;3.80;;;;;;;9.26;68.16;94953.84;5150401;27;20282;-46
2023/01/13 05:07:53;;;;;;;3.90;3.60;;;;;;;9.23;68.04;94943.88;5150639;27;20215;-56
2023/01/13 05:10:21;;;;;;;3.70;3.40;;;;;;;9.26;68.00;94947.94;5149920;27;20199;-47
2023/01/13 05:18:17;;;;;;;3.83;3.40;;;;;;;9.26;68.11;94950.50;5156264;27;20226;-47
2023/01/13 05:20:45;;;;;;;3.70;3.40;;;;;;;9.19;68.25;94944.25;5154790;27;20745;-47
2023/01/13 05:25:57;;;;;;;4.20;3.80;;;;;;;9.21;68.18;94947.50;5153662;27;20186;-48
2023/01/13 05:28:24;;;;;;;4.07;3.50;;;;;;;9.22;68.15;94949.13;5153367;27;20685;-48
2023/01/13 05:30:51;;;;;;;4.53;4.13;;;;;;;9.23;67.98;94961.75;5153631;27;20183;-46
2023/01/13 05:33:20;;;;;;;4.20;3.80;;;;;;;9.23;68.14;94958.38;5153734;27;20187;-46
2023/01/13 05:35:48;;;;;;;4.73;3.97;;;;;;;9.24;68.23;94962.56;5153834;27;20282;-47
2023/01/13 05:38:16;;;;;;;4.53;4.10;;;;;;;9.23;68.23;94953.28;5153398;27;20191;-49
2023/01/13 05:43:31;;;;;;;6.43;4.43;;;;;;;9.21;68.15;94952.63;5153385;27;20665;-46
2023/01/13 05:46:00;;;;;;;4.67;4.27;;;;;;;9.20;68.31;94956.09;5153588;27;20614;-47
2023/01/13 05:48:28;;;;;;;5.00;4.30;;;;;;;8.95;68.30;94921.53;5153330;27;20242;-47
2023/01/13 05:50:55;;;;;;;4.20;3.83;;;;;;;9.14;68.21;94952.28;5152836;27;20200;-46
2023/01/13 05:53:23;;;;;;;4.93;4.53;;;;;;;9.20;68.44;94961.22;5152429;27;20197;-46
2023/01/13 05:55:51;;;;;;;5.20;3.93;;;;;;;9.19;68.36;94968.03;5153195;27;20569;-47
2023/01/13 05:58:19;;;;;;;5.80;4.50;;;;;;;9.19;68.30;94970.56;5153110;27;20184;-49
2023/01/13 06:00:47;;;;;;;4.77;4.27;;;;;;;9.20;68.29;94969.66;5152727;27;20190;-49
2023/01/13 06:03:15;;;;;;;4.87;4.47;;;;;;;9.17;68.39;94964.00;5152824;27;20199;-47
2023/01/13 06:05:42;;;;;;;4.87;4.37;;;;;;;9.17;68.32;94966.53;5153137;27;20657;-47
2023/01/13 06:08:09;;;;;;;5.50;4.40;;;;;;;9.19;68.58;94970.56;5152828;27;20588;-47
2023/01/13 06:10:36;;;;;;;5.50;4.97;;;;;;;9.22;68.14;94975.44;5153333;27;20539;-46
2023/01/13 06:13:04;;;;;;;7.37;4.37;;;;;;;9.78;100.00;94967.50;5152916;27;20882;-47
2023/01/13 06:15:31;;;;;;;8.73;5.43;;;;;;;10.78;100.00;94977.84;5152910;27;20192;-46
2023/01/13 06:18:02;;;;;;;5.63;4.93;;;;;;;11.53;100.00;94986.66;5152985;27;20547;-48
2023/01/13 06:20:29;;;;;;;4.80;4.03;;;;;;;11.78;100.00;94984.47;5152800;27;20210;-47
2023/01/13 06:22:55;;;;;;;7.30;4.60;;;;;;;11.82;100.00;94988.34;5152620;27;20214;-47
2023/01/13 06:25:29;;;;;;;6.17;4.43;;;;;;;11.75;95.43;94990.69;5152789;27;20640;-47
2023/01/13 06:27:58;;;;;;;8.20;4.13;;;;;;;11.65;89.77;94989.06;5151165;27;20203;-45
2023/01/13 06:30:28;;;;;;;5.37;4.83;;;;;;;11.53;85.87;94991.78;5152576;27;20576;-47
2023/01/13 06:33:01;;;;;;;6.67;4.80;;;;;;;11.43;83.82;94993.53;5152598;27;20191;-46
2023/01/13 06:35:32;;;;;;;6.03;4.60;;;;;;;11.33;82.83;94994.50;5152165;27;20191;-48
2023/01/13 06:38:03;;;;;;;5.43;4.93;;;;;;;11.21;82.30;95002.28;5152279;27;20195;-48
2023/01/13 06:40:30;;;;;;;6.03;5.37;;;;;;;11.12;81.55;94999.72;5150821;27;20243;-49
2023/01/13 06:43:15;;;;;;;8.13;5.50;;;;;;;11.03;81.01;94996.22;5149071;27;20188;-46
2023/01/13 06:45:45;;;;;;;7.07;5.57;;;;;;;10.92;80.84;94999.69;5150018;27;20184;-47
2023/01/13 06:48:14;;;;;;;6.40;5.00;;;;;;;10.85;80.41;94997.81;5149398;27;20203;-48
2023/01/13 06:50:41;;;;;;;6.17;5.57;;;;;;;10.78;80.34;94989.84;5148753;27;20195;-47
2023/01/13 06:53:08;;;;;;;5.67;5.03;;;;;;;10.70;80.21;94987.13;5149580;27;20376;-48
2023/01/13 06:55:35;;;;;;;5.43;4.83;;;;;;;10.68;80.16;94992.38;5148860;27;20696;-47
2023/01/13 06:58:02;;;;;;;6.17;5.27;;;;;;;10.63;79.93;94993.72;5149646;27;20180;-47
2023/01/13 07:00:29;;;;;;;6.20;4.93;;;;;;;10.59;79.42;94997.47;5149732;27;20247;-48
2023/01/13 07:03:05;;;;;;;5.37;4.80;;;;;;;10.57;79.17;94991.66;5140828;27;20184;-47
2023/01/13 07:05:33;;;;;;;6.00;5.40;;;;;;;10.51;78.85;94985.31;5131125;27;20184;-47
2023/01/13 07:08:01;;;;;;;6.27;5.13;;;;;;;10.30;78.49;94952.97;5140220;27;20715;-46
2023/01/13 07:10:28;;;;;;;6.50;5.00;;;;;;;10.46;78.25;94979.81;5133275;27;20203;-47
2023/01/13 07:15:41;;;;;;;6.90;5.77;;;;;;;10.51;77.50;94991.25;5084298;28;20422;-49
2023/01/13 07:18:08;;;;;;;8.47;5.80;;;;;;;10.42;77.25;94970.78;5084832;28;20201;-50
2023/01/13 07:20:36;;;;;;;6.67;5.87;;;;;;;10.54;76.96;94982.53;5083847;28;20209;-48
2023/01/13 07:23:03;;;;;;;6.50;5.57;;;;;;;10.55;76.59;94979.03;5084547;28;20318;-47
2023/01/13 07:25:31;;;;;;;6.63;5.83;;;;;;;10.59;76.03;94982.13;5084513;28;20190;-46
2023/01/13 07:27:58;;;;;;;7.03;5.93;;;;;;;10.61;75.84;94987.91;5084280;28;20216;-49
2023/01/13 07:30:25;;;;;;;14.13;5.70;;;;;;;10.89;94.95;94979.50;5084363;28;20277;-46
2023/01/13 07:32:51;;;;;;;7.60;4.80;;;;;;;11.70;100.00;94956.97;5084774;28;20197;-47
2023/01/13 07:35:21;;;;;;;4.83;4.30;;;;;;;12.41;100.00;94973.66;5084079;28;20251;-47
2023/01/13 07:37:50;;;;;;;7.27;4.37;;;;;;;12.66;100.00;94978.13;5084462;28;20616;-47
2023/01/13 07:40:17;;;;;;;8.13;4.77;;;;;;;12.66;100.00;94972.19;5082569;28;20280;-47
2023/01/13 07:45:28;;;;;;;5.93;4.67;;;;;;;12.71;93.76;94975.94;5084019;28;20653;-49
2023/01/13 07:47:55;;;;;;;6.57;4.73;;;;;;;12.66;90.16;94983.25;5083679;28;20653;-47
2023/01/13 07:50:22;;;;;;;10.00;4.60;;;;;;;12.65;87.45;94988.50;5086446;28;20201;-46
2023/01/13 07:52:51;;;;;;;5.20;4.70;;;;;;;12.45;85.37;94954.47;5113507;27;20188;-46
2023/01/13 07:55:17;;;;;;;7.13;4.67;;;;;;;12.60;84.35;94993.25;5140129;27;20294;-46
2023/01/13 07:57:44;;;;;;;5.17;4.63;;;;;;;12.47;83.37;94966.19;5150947;27;20191;-46
2023/01/13 08:00:12;;;;;;;5.20;4.70;;;;;;;12.63;82.65;94988.66;5150640;27;20975;-47
2023/01/13 08:02:39;;;;;;;7.63;5.03;;;;;;;12.61;81.75;94993.13;5150128;27;20183;-48
2023/01/13 08:05:07;;;;;;;7.23;4.90;;;;;;;12.62;80.71;95001.63;5149652;27;20188;-46
2023/01/13 08:07:34;;;;;;;5.63;4.57;;;;;;;12.62;80.23;94999.88;5150547;27;20379;-48
2023/01/13 08:10:02;;;;;;;6.17;4.93;;;;;;;12.63;79.55;95001.47;5150200;27;20504;-47
2023/01/13 08:15:13;;;;;;;6.73;5.30;;;;;;;12.63;78.64;94996.34;5150547;27;20230;-47
2023/01/13 08:17:40;;;;;;;7.60;4.93;;;;;;;12.63;78.23;94998.91;5150430;27;20330;-46
2023/01/13 08:20:09;;;;;;;5.67;4.83;;;;;;;12.74;77.74;94995.38;5150361;27;20198;-46
2023/01/13 08:22:35;;;;;;;5.63;5.07;;;;;;;12.78;77.37;95002.63;5149587;27;20183;-47
2023/01/13 08:25:04;;;;;;;6.40;5.20;;;;;;;12.84;76.88;95001.25;5149602;27;20710;-47
2023/01/13 08:27:31;;;;;;;5.97;5.17;;;;;;;12.90;76.41;95005.00;5149969;27;20198;-47
2023/01/13 08:29:58;;;;;;;5.43;4.90;;;;;;;12.97;75.82;94996.56;5149199;27;20190;-46
2023/01/13 08:32:25;;;;;;;5.27;4.77;;;;;;;13.06;75.37;94995.69;5138592;27;20187;-47
2023/01/13 08:34:51;;;;;;;6.20;4.97;;;;;;;13.14;75.00;94997.53;5141519;27;20674;-47
2023/01/13 08:37:18;;;;;;;5.17;4.70;;;;;;;13.25;74.40;95001.69;5143190;27;20199;-45
2023/01/13 08:39:45;;;;;;;6.03;4.90;;;;;;;13.34;73.98;94997.44;5137825;27;20218;-47
2023/01/13 08:42:13;;;;;;;6.50;5.20;;;;;;;13.45;73.56;95003.16;5145851;27;20179;-45
2023/01/13 08:44:40;;;;;;;5.50;4.97;;;;;;;13.56;72.77;95007.28;5136408;27;20649;-47
2023/01/13 08:47:07;;;;;;;5.77;5.07;;;;;;;13.66;72.28;95002.84;5147418;27;20195;-46
2023/01/13 08:49:34;;;;;;;5.97;5.20;;;;;;;13.77;71.80;94991.50;5143755;27;20223;-45
2023/01/13 08:52:00;;;;;;;6.33;4.83;;;;;;;13.86;71.41;94992.38;5145635;27;20215;-46
2023/01/13 08:54:27;;;;;;;5.67;4.47;;;;;;;13.97;71.09;94995.50;5147440;27;20731;-46
2023/01/13 08:56:54;;;;;;;8.37;5.03;;;;;;;14.03;70.81;94987.22;5148907;27;20196;-46
2023/01/13 08:59:22;;;;;;;5.10;4.60;;;;;;;14.14;70.38;94993.84;5150944;27;20172;-47
2023/01/13 09:01:49;;;;;;;5.17;4.67;;;;;;;14.24;69.91;94993.75;5148655;27;20198;-47
2023/01/13 09:04:19;;;;;;;5.37;4.50;;;;;;;14.31;69.51;94992.97;5141364;27;20677;-46
2023/01/13 09:06:47;;;;;;;5.07;4.53;;;;;;;14.42;69.13;94993.66;5140757;27;20185;-47
2023/01/13 09:09:14;;;;;;;6.07;4.60;;;;;;;14.51;68.62;94998.75;5146820;27;20227;-45
2023/01/13 09:14:33;;;;;;;4.37;3.97;;;;;;;14.78;67.66;94994.34;5145613;27;20184;-46
2023/01/13 09:17:00;;;;;;;5.53;4.30;;;;;;;14.90;67.21;94989.72;5145979;27;20199;-47
2023/01/13 09:19:27;;;;;;;4.67;3.80;;;;;;;14.99;67.11;94986.22;5153265;27;20282;-47
2023/01/13 09:21:54;;;;;;;5.47;4.10;;;;;;;15.04;66.73;94994.25;5153203;27;20208;-46
2023/01/13 09:24:22;;;;;;;4.73;3.60;;;;;;;15.06;66.65;94997.47;5145187;27;20185;-47
2023/01/13 09:26:49;;;;;;;4.40;3.93;;;;;;;15.08;66.46;94987.03;5150586;27;20192;-48
2023/01/13 09:29:16;;;;;;;5.20;3.93;;;;;;;15.10;66.02;94993.63;5148267;27;20196;-47
2023/01/13 09:31:45;;;;;;;5.07;3.90;;;;;;;15.15;65.96;94990.56;5152221;27;20196;-52
2023/01/13 09:36:59;;;;;;;4.10;3.70;;;;;;;15.24;65.38;94987.03;5140223;27;20656;-47
2023/01/13 09:39:26;;;;;;;5.20;3.90;;;;;;;15.32;65.00;94982.69;5151985;27;20207;-47
2023/01/13 09:44:48;;;;;;;5.40;4.03;;;;;;;15.46;64.51;94989.00;5147246;27;20240;-48
2023/01/13 09:47:21;;;;;;;3.80;3.50;;;;;;;15.56;64.01;94988.84;5143342;27;20203;-48
2023/01/13 09:49:48;;;;;;;6.53;4.10;;;;;;;15.60;63.93;94981.59;5136698;27;20700;-45
2023/01/13 09:52:19;;;;;;;4.03;3.60;;;;;;;15.64;63.74;94983.72;5148846;27;21093;-48
2023/01/13 09:54:50;;;;;;;3.73;3.43;;;;;;;15.67;63.44;94980.00;5146172;27;20306;-46
2023/01/13 09:57:19;;;;;;;4.87;4.13;;;;;;;15.73;63.29;94972.44;5145307;27;20672;-47
2023/01/13 09:59:46;;;;;;;4.43;3.90;;;;;;;15.77;63.16;94971.16;5140532;27;20196;-46
2023/01/13 10:02:33;;;;;;;4.13;3.70;;;;;;;15.80;62.66;94968.25;5135975;27;20649;-49
2023/01/13 10:05:09;;;;;;;6.10;3.87;;;;;;;15.82;62.54;94965.50;5142562;27;20315;-47
2023/01/13 10:07:41;;;;;;;4.50;4.10;;;;;;;15.82;62.53;94968.09;5146028;27;20196;-48
2023/01/13 10:10:17;;;;;;;4.30;3.70;;;;;;;15.82;62.50;94962.13;5143356;27;20224;-47
2023/01/13 10:15:31;;;;;;;7.53;3.90;;;;;;;15.73;62.31;94959.56;5136226;27;20198;-48
2023/01/13 10:18:07;;;;;;;4.63;4.20;;;;;;;15.69;62.08;94965.19;5141181;27;20191;-51
2023/01/13 10:20:43;;;;;;;4.33;3.83;;;;;;;15.64;61.88;94962.28;5139411;27;20192;-48
2023/01/13 10:23:33;;;;;;;4.10;3.70;;;;;;;15.54;61.95;94965.81;5142727;27;20645;-48
2023/01/13 10:26:07;;;;;;;5.13;3.60;;;;;;;15.48;61.77;94955.34;5138583;27;20177;-47
2023/01/13 10:28:34;;;;;;;4.43;4.00;;;;;;;15.35;61.66;94940.34;5143316;27;20230;-47
2023/01/13 10:31:03;;;;;;;5.03;3.73;;;;;;;15.38;61.64;94952.13;5143051;27;20184;-46
2023/01/13 10:33:31;;;;;;;4.33;3.93;;;;;;;15.34;61.47;94945.69;5146159;27;20195;-45
2023/01/13 10:36:00;;;;;;;4.60;3.50;;;;;;;15.31;61.42;94954.53;5142182;27;20196;-47
2023/01/13 10:38:30;;;;;;;3.87;3.47;;;;;;;15.28;61.30;94945.34;5138793;27;20192;-46
2023/01/13 10:40:58;;;;;;;4.13;3.73;;;;;;;15.27;61.31;94946.31;5136991;27;20196;-46
2023/01/13 10:43:26;;;;;;;5.47;3.60;;;;;;;15.25;61.22;94943.09;5146631;27;20192;-46
2023/01/13 10:45:58;;;;;;;3.80;3.43;;;;;;;15.22;61.26;94943.41;5145954;27;20286;-48
2023/01/13 10:48:37;;;;;;;4.07;3.67;;;;;;;15.17;61.20;94937.94;5143340;27;20192;-47
2023/01/13 10:51:23;;;;;;;6.13;3.33;;;;;;;15.02;61.06;94930.00;5145498;27;20188;-48
2023/01/13 10:53:53;;;;;;;3.63;3.27;;;;;;;15.01;61.12;94938.72;5136893;27;20240;-46
2023/01/13 10:56:21;;;;;;;4.33;3.77;;;;;;;14.96;61.12;94932.44;5145929;27;20203;-46
2023/01/13 10:58:48;;;;;;;3.90;3.53;;;;;;;14.86;61.42;94932.56;5144467;27;20184;-47
2023/01/13 11:01:25;;;;;;;3.53;3.23;;;;;;;14.76;61.14;94926.75;5147431;27;21064;-45
2023/01/13 11:03:54;;;;;;;4.20;3.80;;;;;;;14.67;61.23;94933.63;5148189;27;20236;-45
2023/01/13 11:06:24;;;;;;;4.03;3.67;;;;;;;14.55;61.43;94924.63;5142284;27;20200;-48
2023/01/13 11:08:54;;;;;;;4.23;3.60;;;;;;;14.36;61.59;94906.81;5140801;27;20219;-48
2023/01/13 11:11:54;;;;;;;3.87;3.53;;;;;;;14.40;61.62;94926.94;5137649;27;20205;-49
2023/01/13 11:14:35;;;;;;;4.03;3.40;;;;;;;14.32;61.57;94926.91;5055021;28;20278;-48
2023/01/13 11:17:19;;;;;;;4.53;3.70;;;;;;;14.27;61.70;94923.97;5062881;28;20229;-48
2023/01/13 11:19:53;;;;;;;3.50;3.20;;;;;;;14.21;61.86;94920.28;5046627;28;20213;-47
2023/01/13 11:22:25;;;;;;;3.53;3.23;;;;;;;14.16;61.85;94919.94;5060393;28;20201;-48
2023/01/13 11:24:56;;;;;;;3.73;3.43;;;;;;;14.05;61.87;94913.28;5061375;28;20201;-46
2023/01/13 11:27:36;;;;;;;5.47;3.70;;;;;;;14.03;62.02;94919.53;5063396;28;20195;-48
2023/01/13 11:30:14;;;;;;;4.03;3.40;;;;;;;13.96;62.03;94921.91;5062624;28;20264;-46
2023/01/13 11:32:59;;;;;;;3.73;3.27;;;;;;;13.75;61.95;94893.19;5058417;28;20593;-47
2023/01/13 11:35:31;;;;;;;3.90;3.50;;;;;;;13.79;62.13;94905.59;5059609;28;20240;-46
2023/01/13 11:38:04;;;;;;;4.10;3.40;;;;;;;13.78;62.27;94916.03;5062611;28;20209;-47
2023/01/13 11:40:36;;;;;;;4.10;3.70;;;;;;;13.70;62.21;94915.97;5063139;28;20199;-49
2023/01/13 11:43:11;;;;;;;4.03;3.53;;;;;;;13.68;62.20;94905.03;5059994;28;20300;-47
2023/01/13 11:45:44;;;;;;;4.27;3.80;;;;;;;13.60;62.32;94899.84;5063476;28;20650;-50
2023/01/13 11:48:15;;;;;;;4.90;3.37;;;;;;;13.56;62.45;94907.06;5063420;28;20189;-45
2023/01/13 11:50:52;;;;;;;3.53;3.23;;;;;;;13.51;62.60;94899.81;5125223;27;20226;-46
2023/01/13 11:53:39;;;;;;;4.23;3.57;;;;;;;13.48;62.53;94899.28;5138796;27;20199;-45
2023/01/13 11:56:23;;;;;;;5.27;3.93;;;;;;;13.45;62.67;94900.41;5133095;27;20202;-46
2023/01/13 11:59:25;;;;;;;4.13;3.73;;;;;;;13.43;62.29;94911.78;5139637;27;20199;-46
2023/01/13 12:02:04;;;;;;;3.93;3.53;;;;;;;13.40;62.69;94909.50;5081310;28;20674;-45
2023/01/13 12:04:43;;;;;;;4.50;3.90;;;;;;;13.39;62.62;94902.75;5080523;28;20186;-48
2023/01/13 12:07:27;;;;;;;4.60;4.00;;;;;;;13.40;62.70;94901.81;5078109;28;20197;-47
2023/01/13 12:10:03;;;;;;;5.40;3.30;;;;;;;13.39;62.41;94893.28;5082171;28;20342;-47
2023/01/13 12:12:50;;;;;;;3.60;3.30;;;;;;;13.40;62.56;94900.03;5073953;28;20681;-48
2023/01/13 12:15:56;;;;;;;4.03;3.60;;;;;;;13.39;62.54;94898.44;5078393;28;20259;-46
2023/01/13 12:18:47;;;;;;;4.10;3.70;;;;;;;13.35;62.50;94883.47;5002715;28;20211;-46
2023/01/13 12:21:20;;;;;;;4.43;3.90;;;;;;;13.36;62.41;94890.22;5002656;28;20283;-48
2023/01/13 12:23:58;;;;;;;3.93;3.53;;;;;;;13.36;62.50;94887.66;5002527;28;20633;-46
2023/01/13 12:26:25;;;;;;;4.83;3.90;;;;;;;13.37;62.51;94881.53;5003121;28;20698;-47
2023/01/13 12:28:57;;;;;;;3.67;3.30;;;;;;;13.39;62.51;94885.59;5007044;28;20670;-47
2023/01/13 12:31:26;;;;;;;5.27;3.87;;;;;;;13.42;62.11;94884.47;5006425;28;20195;-48
2023/01/13 12:34:19;;;;;;;4.77;4.07;;;;;;;13.42;62.17;94879.31;5005700;28;20199;-49
2023/01/13 12:36:57;;;;;;;4.80;3.33;;;;;;;13.40;62.04;94870.97;5006796;28;20626;-46